sensor_id;sensor_type;location;lat;lon;timestamp;pressure;altitude;pressure_sealevel;temperature;humidity
75627;BME280;67372;49.404;11.034;2023-04-25T00:00:47;97451.97;;;8.77;69.19
75627;BME280;67372;49.404;11.034;2023-04-25T00:03:13;97451.97;;;8.77;69.25
75627;BME280;67372;49.404;11.034;2023-04-25T00:05:40;97450.72;;;8.79;69.53
75627;BME280;67372;49.404;11.034;2023-04-25T00:08:07;97447.69;;;8.76;69.67
75627;BME280;67372;49.404;11.034;2023-04-25T00:10:33;97445.41;;;8.79;69.22
75627;BME280;67372;49.404;11.034;2023-04-25T00:12:59;97442.53;;;8.81;69.14
75627;BME280;67372;49.404;11.034;2023-04-25T00:15:26;97443.09;;;8.83;69.10
75627;BME280;67372;49.404;11.034;2023-04-25T00:17:52;97456.03;;;8.79;69.90
75627;BME280;67372;49.404;11.034;2023-04-25T00:20:18;97456.19;;;8.84;68.84
75627;BME280;67372;49.404;11.034;2023-04-25T00:22:45;97454.31;;;8.85;69.41
75627;BME280;67372;49.404;11.034;2023-04-25T00:25:11;97461.03;;;8.87;69.54
75627;BME280;67372;49.404;11.034;2023-04-25T00:27:37;97457.56;;;8.87;69.05
75627;BME280;67372;49.404;11.034;2023-04-25T00:30:04;97456.91;;;8.91;68.75
75627;BME280;67372;49.404;11.034;2023-04-25T00:32:31;97452.53;;;8.97;68.93
75627;BME280;67372;49.404;11.034;2023-04-25T00:34:57;97452.53;;;8.97;69.61
75627;BME280;67372;49.404;11.034;2023-04-25T00:37:24;97454.59;;;8.95;71.44
75627;BME280;67372;49.404;11.034;2023-04-25T00:39:50;97454.38;;;8.97;70.08
75627;BME280;67372;49.404;11.034;2023-04-25T00:42:17;97456.00;;;8.98;70.08
75627;BME280;67372;49.404;11.034;2023-04-25T00:44:44;97443.31;;;9.00;69.57
75627;BME280;67372;49.404;11.034;2023-04-25T00:47:11;97445.16;;;8.99;70.04
75627;BME280;67372;49.404;11.034;2023-04-25T00:49:37;97446.63;;;8.95;71.35
75627;BME280;67372;49.404;11.034;2023-04-25T00:52:04;97447.66;;;8.94;70.54
75627;BME280;67372;49.404;11.034;2023-04-25T00:54:30;97447.44;;;8.96;70.04
75627;BME280;67372;49.404;11.034;2023-04-25T00:56:57;97451.00;;;8.89;70.41
75627;BME280;67372;49.404;11.034;2023-04-25T00:59:23;97449.13;;;8.90;70.68
75627;BME280;67372;49.404;11.034;2023-04-25T01:01:51;97447.28;;;8.90;70.94
75627;BME280;67372;49.404;11.034;2023-04-25T01:04:17;97439.91;;;8.92;69.96
75627;BME280;67372;49.404;11.034;2023-04-25T01:06:44;97441.38;;;8.88;70.61
75627;BME280;67372;49.404;11.034;2023-04-25T01:09:12;97442.88;;;8.84;70.49
75627;BME280;67372;49.404;11.034;2023-04-25T01:11:38;97433.63;;;8.87;70.10
75627;BME280;67372;49.404;11.034;2023-04-25T01:14:04;97430.75;;;8.88;69.85
75627;BME280;67372;49.404;11.034;2023-04-25T01:16:32;97435.84;;;8.90;69.99
75627;BME280;67372;49.404;11.034;2023-04-25T01:18:59;97430.53;;;8.90;70.22
75627;BME280;67372;49.404;11.034;2023-04-25T01:21:26;97428.69;;;8.90;69.95
75627;BME280;67372;49.404;11.034;2023-04-25T01:23:53;97428.09;;;8.88;70.14
75627;BME280;67372;49.404;11.034;2023-04-25T01:26:20;97420.13;;;8.88;69.86
75627;BME280;67372;49.404;11.034;2023-04-25T01:28:48;97417.69;;;8.87;70.33
75627;BME280;67372;49.404;11.034;2023-04-25T01:31:15;97415.25;;;8.85;70.13
75627;BME280;67372;49.404;11.034;2023-04-25T01:33:42;97421.97;;;8.88;69.93
75627;BME280;67372;49.404;11.034;2023-04-25T01:36:08;97427.28;;;8.88;71.16
75627;BME280;67372;49.404;11.034;2023-04-25T01:38:35;97430.97;;;8.87;70.37
75627;BME280;67372;49.404;11.034;2023-04-25T01:41:01;97436.97;;;8.82;71.30
75627;BME280;67372;49.404;11.034;2023-04-25T01:43:28;97438.00;;;8.81;70.79
75627;BME280;67372;49.404;11.034;2023-04-25T01:45:55;97431.66;;;8.82;70.96
75627;BME280;67372;49.404;11.034;2023-04-25T01:48:21;97432.47;;;8.83;70.92
75627;BME280;67372;49.404;11.034;2023-04-25T01:50:47;97439.03;;;8.80;71.01
75627;BME280;67372;49.404;11.034;2023-04-25T01:53:14;97431.66;;;8.82;70.35
75627;BME280;67372;49.404;11.034;2023-04-25T01:55:40;97432.91;;;8.80;71.10
75627;BME280;67372;49.404;11.034;2023-04-25T01:58:08;97444.81;;;8.77;70.93
75627;BME280;67372;49.404;11.034;2023-04-25T02:00:35;97444.81;;;8.77;70.93
75627;BME280;67372;49.404;11.034;2023-04-25T02:03:02;97437.06;;;8.76;72.42
75627;BME280;67372;49.404;11.034;2023-04-25T02:05:28;97442.44;;;8.69;72.59
75627;BME280;67372;49.404;11.034;2023-04-25T02:07:59;97441.50;;;8.64;72.10
75627;BME280;67372;49.404;11.034;2023-04-25T02:10:26;97435.00;;;8.59;71.61
75627;BME280;67372;49.404;11.034;2023-04-25T02:12:52;97429.09;;;8.57;71.47
75627;BME280;67372;49.404;11.034;2023-04-25T02:15:19;97425.25;;;8.53;71.75
75627;BME280;67372;49.404;11.034;2023-04-25T02:17:45;97422.22;;;8.50;71.37
75627;BME280;67372;49.404;11.034;2023-04-25T02:20:11;97428.78;;;8.47;71.51
75627;BME280;67372;49.404;11.034;2023-04-25T02:22:38;97432.56;;;8.40;73.01
75627;BME280;67372;49.404;11.034;2023-04-25T02:25:04;97429.75;;;8.35;72.67
75627;BME280;67372;49.404;11.034;2023-04-25T02:27:31;97430.19;;;8.31;72.97
75627;BME280;67372;49.404;11.034;2023-04-25T02:29:57;97422.81;;;8.34;72.44
75627;BME280;67372;49.404;11.034;2023-04-25T02:32:23;97421.56;;;8.36;71.75
75627;BME280;67372;49.404;11.034;2023-04-25T02:34:50;97416.25;;;8.36;72.61
75627;BME280;67372;49.404;11.034;2023-04-25T02:37:16;97417.69;;;8.32;73.84
75627;BME280;67372;49.404;11.034;2023-04-25T02:39:42;97413.41;;;8.31;72.47
75627;BME280;67372;49.404;11.034;2023-04-25T02:42:09;97415.28;;;8.30;73.39
75627;BME280;67372;49.404;11.034;2023-04-25T02:44:35;97412.59;;;8.30;73.57
75627;BME280;67372;49.404;11.034;2023-04-25T02:47:02;97404.88;;;8.29;74.27
75627;BME280;67372;49.404;11.034;2023-04-25T02:49:28;97409.38;;;8.28;73.86
75627;BME280;67372;49.404;11.034;2023-04-25T02:51:54;97409.94;;;8.30;72.70
75627;BME280;67372;49.404;11.034;2023-04-25T02:54:21;97400.56;;;8.28;74.25
75627;BME280;67372;49.404;11.034;2023-04-25T02:56:47;97401.59;;;8.27;73.31
75627;BME280;67372;49.404;11.034;2023-04-25T02:59:13;97398.94;;;8.27;73.54
75627;BME280;67372;49.404;11.034;2023-04-25T03:01:40;97399.75;;;8.27;73.20
75627;BME280;67372;49.404;11.034;2023-04-25T03:04:06;97397.31;;;8.26;73.57
75627;BME280;67372;49.404;11.034;2023-04-25T03:06:33;97388.31;;;8.27;72.97
75627;BME280;67372;49.404;11.034;2023-04-25T03:08:59;97386.69;;;8.26;73.21
75627;BME280;67372;49.404;11.034;2023-04-25T03:11:25;97393.03;;;8.25;73.43
75627;BME280;67372;49.404;11.034;2023-04-25T03:13:52;97397.31;;;8.26;73.04
75627;BME280;67372;49.404;11.034;2023-04-25T03:16:18;97395.47;;;8.26;72.93
75627;BME280;67372;49.404;11.034;2023-04-25T03:18:45;97388.75;;;8.24;73.42
75627;BME280;67372;49.404;11.034;2023-04-25T03:21:11;97393.47;;;8.22;74.10
75627;BME280;67372;49.404;11.034;2023-04-25T03:23:37;97394.72;;;8.19;73.38
75627;BME280;67372;49.404;11.034;2023-04-25T03:26:04;97389.41;;;8.19;73.21
75627;BME280;67372;49.404;11.034;2023-04-25T03:28:30;97396.44;;;8.14;74.33
75627;BME280;67372;49.404;11.034;2023-04-25T03:30:56;97393.19;;;8.12;74.26
75627;BME280;67372;49.404;11.034;2023-04-25T03:33:22;97390.97;;;8.09;73.76
75627;BME280;67372;49.404;11.034;2023-04-25T03:35:49;97388.53;;;8.07;73.46
75627;BME280;67372;49.404;11.034;2023-04-25T03:38:15;97390.38;;;8.07;73.56
75627;BME280;67372;49.404;11.034;2023-04-25T03:40:41;97387.34;;;8.03;73.43
75627;BME280;67372;49.404;11.034;2023-04-25T03:43:08;97388.00;;;7.98;73.82
75627;BME280;67372;49.404;11.034;2023-04-25T03:45:34;97379.88;;;7.93;74.55
75627;BME280;67372;49.404;11.034;2023-04-25T03:48:00;97384.25;;;7.88;74.30
75627;BME280;67372;49.404;11.034;2023-04-25T03:50:27;97385.94;;;7.82;74.43
75627;BME280;67372;49.404;11.034;2023-04-25T03:52:53;97384.13;;;7.76;74.79
75627;BME280;67372;49.404;11.034;2023-04-25T03:55:20;97382.13;;;7.72;74.78
75627;BME280;67372;49.404;11.034;2023-04-25T03:57:46;97380.34;;;7.65;75.10
75627;BME280;67372;49.404;11.034;2023-04-25T04:00:13;97381.97;;;7.66;74.64
75627;BME280;67372;49.404;11.034;2023-04-25T04:02:39;97382.19;;;7.65;75.00
75627;BME280;67372;49.404;11.034;2023-04-25T04:05:09;97381.81;;;7.61;75.39
75627;BME280;67372;49.404;11.034;2023-04-25T04:07:36;97384.69;;;7.60;75.73
75627;BME280;67372;49.404;11.034;2023-04-25T04:10:02;97379.19;;;7.61;74.42
75627;BME280;67372;49.404;11.034;2023-04-25T04:12:29;97388.75;;;7.62;74.65
75627;BME280;67372;49.404;11.034;2023-04-25T04:14:55;97393.84;;;7.64;74.99
75627;BME280;67372;49.404;11.034;2023-04-25T04:17:21;97389.34;;;7.64;74.88
75627;BME280;67372;49.404;11.034;2023-04-25T04:19:48;97389.72;;;7.68;74.42
75627;BME280;67372;49.404;11.034;2023-04-25T04:22:14;97391.72;;;7.73;74.40
75627;BME280;67372;49.404;11.034;2023-04-25T04:24:40;97396.59;;;7.76;74.21
75627;BME280;67372;49.404;11.034;2023-04-25T04:27:07;97393.28;;;7.80;74.27
75627;BME280;67372;49.404;11.034;2023-04-25T04:29:33;97394.72;;;7.83;74.56
75627;BME280;67372;49.404;11.034;2023-04-25T04:32:00;97398.75;;;7.85;74.28
75627;BME280;67372;49.404;11.034;2023-04-25T04:34:26;97402.16;;;7.92;73.87
75627;BME280;67372;49.404;11.034;2023-04-25T04:36:52;97396.19;;;7.97;74.09
75627;BME280;67372;49.404;11.034;2023-04-25T04:39:19;97381.66;;;7.99;73.59
75627;BME280;67372;49.404;11.034;2023-04-25T04:41:45;97394.06;;;8.06;74.14
75627;BME280;67372;49.404;11.034;2023-04-25T04:44:11;97396.28;;;8.09;73.92
75627;BME280;67372;49.404;11.034;2023-04-25T04:46:38;97402.84;;;8.06;74.21
75627;BME280;67372;49.404;11.034;2023-04-25T04:49:04;97402.63;;;8.08;74.00
75627;BME280;67372;49.404;11.034;2023-04-25T04:51:31;97408.97;;;8.07;74.59
75627;BME280;67372;49.404;11.034;2023-04-25T04:53:58;97404.03;;;8.10;73.71
75627;BME280;67372;49.404;11.034;2023-04-25T04:56:25;97405.66;;;8.11;74.90
75627;BME280;67372;49.404;11.034;2023-04-25T04:58:51;97413.56;;;8.18;74.04
75627;BME280;67372;49.404;11.034;2023-04-25T05:01:17;97408.53;;;8.28;73.26
75627;BME280;67372;49.404;11.034;2023-04-25T05:03:44;97412.59;;;8.30;72.61
75627;BME280;67372;49.404;11.034;2023-04-25T05:06:10;97412.84;;;8.29;72.85
75627;BME280;67372;49.404;11.034;2023-04-25T05:08:37;97424.09;;;8.24;73.47
75627;BME280;67372;49.404;11.034;2023-04-25T05:11:03;97420.16;;;8.34;72.91
75627;BME280;67372;49.404;11.034;2023-04-25T05:13:29;97416.25;;;8.36;72.93
75627;BME280;67372;49.404;11.034;2023-04-25T05:15:56;97424.16;;;8.43;73.15
75627;BME280;67372;49.404;11.034;2023-04-25T05:18:22;97421.03;;;8.46;72.97
75627;BME280;67372;49.404;11.034;2023-04-25T05:20:49;97416.47;;;8.53;72.63
75627;BME280;67372;49.404;11.034;2023-04-25T05:23:15;97412.25;;;8.64;72.38
75627;BME280;67372;49.404;11.034;2023-04-25T05:25:42;97413.72;;;8.78;71.76
75627;BME280;67372;49.404;11.034;2023-04-25T05:28:08;97418.44;;;8.76;72.01
75627;BME280;67372;49.404;11.034;2023-04-25T05:30:34;97419.41;;;8.81;72.04
75627;BME280;67372;49.404;11.034;2023-04-25T05:33:01;97419.41;;;8.81;71.76
75627;BME280;67372;49.404;11.034;2023-04-25T05:35:27;97418.13;;;8.84;71.81
75627;BME280;67372;49.404;11.034;2023-04-25T05:37:54;97419.16;;;8.83;71.17
75627;BME280;67372;49.404;11.034;2023-04-25T05:40:20;97419.16;;;8.83;71.69
75627;BME280;67372;49.404;11.034;2023-04-25T05:42:46;97423.00;;;8.87;71.52
75627;BME280;67372;49.404;11.034;2023-04-25T05:45:13;97427.63;;;8.91;71.31
75627;BME280;67372;49.404;11.034;2023-04-25T05:47:39;97434.81;;;8.91;70.97
75627;BME280;67372;49.404;11.034;2023-04-25T05:50:06;97426.81;;;8.91;71.44
75627;BME280;67372;49.404;11.034;2023-04-25T05:52:33;97433.03;;;9.03;70.73
75627;BME280;67372;49.404;11.034;2023-04-25T05:54:59;97440.09;;;9.09;70.46
75627;BME280;67372;49.404;11.034;2023-04-25T05:57:26;97434.19;;;9.07;70.35
75627;BME280;67372;49.404;11.034;2023-04-25T05:59:53;97439.50;;;9.07;71.02
75627;BME280;67372;49.404;11.034;2023-04-25T06:02:20;97438.34;;;9.03;70.96
75627;BME280;67372;49.404;11.034;2023-04-25T06:04:49;97438.94;;;9.05;70.31
75627;BME280;67372;49.404;11.034;2023-04-25T06:07:15;97439.97;;;9.04;70.85
75627;BME280;67372;49.404;11.034;2023-04-25T06:09:42;97444.75;;;8.96;70.80
75627;BME280;67372;49.404;11.034;2023-04-25T06:12:09;97439.84;;;8.99;70.99
75627;BME280;67372;49.404;11.034;2023-04-25T06:14:35;97443.50;;;8.98;70.09
75627;BME280;67372;49.404;11.034;2023-04-25T06:17:02;97437.47;;;8.91;70.38
75627;BME280;67372;49.404;11.034;2023-04-25T06:19:29;97445.75;;;9.01;70.65
75627;BME280;67372;49.404;11.034;2023-04-25T06:21:55;97442.69;;;8.98;70.93
75627;BME280;67372;49.404;11.034;2023-04-25T06:24:21;97452.53;;;8.97;70.65
75627;BME280;67372;49.404;11.034;2023-04-25T06:26:48;97438.78;;;9.00;70.42
75627;BME280;67372;49.404;11.034;2023-04-25T06:29:14;97437.25;;;8.92;70.74
75627;BME280;67372;49.404;11.034;2023-04-25T06:31:40;97440.03;;;8.98;71.27
75627;BME280;67372;49.404;11.034;2023-04-25T06:34:07;97444.19;;;8.93;71.51
75627;BME280;67372;49.404;11.034;2023-04-25T06:36:33;97444.94;;;8.82;72.57
75627;BME280;67372;49.404;11.034;2023-04-25T06:38:59;97451.53;;;8.80;72.57
75627;BME280;67372;49.404;11.034;2023-04-25T06:41:26;97448.44;;;8.83;72.88
75627;BME280;67372;49.404;11.034;2023-04-25T06:43:52;97443.63;;;8.73;73.70
75627;BME280;67372;49.404;11.034;2023-04-25T06:46:18;97447.84;;;8.63;74.87
75627;BME280;67372;49.404;11.034;2023-04-25T06:48:45;97452.34;;;8.62;75.33
75627;BME280;67372;49.404;11.034;2023-04-25T06:51:11;97449.41;;;8.52;75.63
75627;BME280;67372;49.404;11.034;2023-04-25T06:53:38;97455.94;;;8.49;75.90
75627;BME280;67372;49.404;11.034;2023-04-25T06:56:05;97454.34;;;8.48;75.56
75627;BME280;67372;49.404;11.034;2023-04-25T06:58:31;97458.53;;;8.38;76.12
75627;BME280;67372;49.404;11.034;2023-04-25T07:00:58;97465.13;;;8.35;76.61
75627;BME280;67372;49.404;11.034;2023-04-25T07:03:24;97461.84;;;8.33;76.00
75627;BME280;67372;49.404;11.034;2023-04-25T07:05:51;97461.88;;;8.26;76.17
75627;BME280;67372;49.404;11.034;2023-04-25T07:08:17;97452.06;;;8.27;75.52
75627;BME280;67372;49.404;11.034;2023-04-25T07:10:43;97457.16;;;8.35;75.78
75627;BME280;67372;49.404;11.034;2023-04-25T07:13:11;97460.63;;;8.36;75.42
75627;BME280;67372;49.404;11.034;2023-04-25T07:15:38;97465.56;;;8.50;74.54
75627;BME280;67372;49.404;11.034;2023-04-25T07:18:04;97462.84;;;8.57;74.79
75627;BME280;67372;49.404;11.034;2023-04-25T07:20:31;97464.53;;;8.70;75.04
75627;BME280;67372;49.404;11.034;2023-04-25T07:22:57;97461.13;;;8.81;71.95
75627;BME280;67372;49.404;11.034;2023-04-25T07:25:23;97481.28;;;8.88;72.16
75627;BME280;67372;49.404;11.034;2023-04-25T07:27:50;97475.00;;;8.83;73.66
75627;BME280;67372;49.404;11.034;2023-04-25T07:30:16;97483.25;;;9.11;72.61
75627;BME280;67372;49.404;11.034;2023-04-25T07:32:43;97483.81;;;8.83;70.24
75627;BME280;67372;49.404;11.034;2023-04-25T07:35:09;97488.09;;;8.66;68.48
75627;BME280;67372;49.404;11.034;2023-04-25T07:37:35;97491.50;;;8.55;68.78
75627;BME280;67372;49.404;11.034;2023-04-25T07:40:03;97485.13;;;8.38;69.38
75627;BME280;67372;49.404;11.034;2023-04-25T07:42:30;97493.69;;;8.15;70.35
75627;BME280;67372;49.404;11.034;2023-04-25T07:44:56;97498.50;;;7.99;69.95
75627;BME280;67372;49.404;11.034;2023-04-25T07:47:23;97489.50;;;8.00;70.42
75627;BME280;67372;49.404;11.034;2023-04-25T07:49:49;97498.25;;;7.83;71.50
75627;BME280;67372;49.404;11.034;2023-04-25T07:52:15;97495.09;;;7.92;71.19
75627;BME280;67372;49.404;11.034;2023-04-25T07:54:42;97498.78;;;7.91;71.25
75627;BME280;67372;49.404;11.034;2023-04-25T07:57:08;97505.28;;;7.95;71.39
75627;BME280;67372;49.404;11.034;2023-04-25T07:59:35;97505.72;;;7.92;71.31
75627;BME280;67372;49.404;11.034;2023-04-25T08:02:01;97512.28;;;7.90;71.75
75627;BME280;67372;49.404;11.034;2023-04-25T08:04:27;97516.41;;;7.86;72.67
75627;BME280;67372;49.404;11.034;2023-04-25T08:06:54;97519.81;;;7.93;72.96
75627;BME280;67372;49.404;11.034;2023-04-25T08:09:21;97529.63;;;7.92;74.16
75627;BME280;67372;49.404;11.034;2023-04-25T08:11:47;97526.59;;;7.57;73.59
75627;BME280;67372;49.404;11.034;2023-04-25T08:14:14;97533.41;;;7.47;73.66
75627;BME280;67372;49.404;11.034;2023-04-25T08:16:40;97529.94;;;7.46;73.61
75627;BME280;67372;49.404;11.034;2023-04-25T08:19:06;97535.19;;;7.53;73.73
75627;BME280;67372;49.404;11.034;2023-04-25T08:21:33;97533.88;;;7.68;73.32
75627;BME280;67372;49.404;11.034;2023-04-25T08:23:59;97543.94;;;7.91;73.07
75627;BME280;67372;49.404;11.034;2023-04-25T08:26:25;97533.38;;;8.10;71.70
75627;BME280;67372;49.404;11.034;2023-04-25T08:28:52;97537.97;;;8.21;70.71
75627;BME280;67372;49.404;11.034;2023-04-25T08:31:18;97531.91;;;8.39;71.30
75627;BME280;67372;49.404;11.034;2023-04-25T08:33:45;97532.38;;;8.72;71.37
75627;BME280;67372;49.404;11.034;2023-04-25T08:36:11;97537.63;;;9.15;70.18
75627;BME280;67372;49.404;11.034;2023-04-25T08:38:39;97527.88;;;9.58;70.13
75627;BME280;67372;49.404;11.034;2023-04-25T08:41:06;97538.53;;;9.99;69.70
75627;BME280;67372;49.404;11.034;2023-04-25T08:43:33;97538.84;;;10.44;67.99
75627;BME280;67372;49.404;11.034;2023-04-25T08:46:01;97539.88;;;10.79;67.63
75627;BME280;67372;49.404;11.034;2023-04-25T08:48:27;97537.38;;;11.12;65.26
75627;BME280;67372;49.404;11.034;2023-04-25T08:50:55;97538.47;;;11.40;64.52
75627;BME280;67372;49.404;11.034;2023-04-25T08:53:26;97535.06;;;11.44;62.02
75627;BME280;67372;49.404;11.034;2023-04-25T08:55:55;97543.94;;;11.61;64.29
75627;BME280;67372;49.404;11.034;2023-04-25T08:58:22;97549.13;;;11.68;63.48
75627;BME280;67372;49.404;11.034;2023-04-25T09:00:50;97545.56;;;11.62;62.30
75627;BME280;67372;49.404;11.034;2023-04-25T09:03:17;97530.75;;;11.72;61.08
75627;BME280;67372;49.404;11.034;2023-04-25T09:05:44;97551.16;;;11.61;61.85
75627;BME280;67372;49.404;11.034;2023-04-25T09:08:10;97546.88;;;11.48;59.29
75627;BME280;67372;49.404;11.034;2023-04-25T09:10:37;97552.38;;;11.42;58.89
75627;BME280;67372;49.404;11.034;2023-04-25T09:13:10;97557.59;;;10.96;60.26
75627;BME280;67372;49.404;11.034;2023-04-25T09:15:54;97557.50;;;10.33;62.31
75627;BME280;67372;49.404;11.034;2023-04-25T09:18:25;97567.03;;;10.10;64.16
75627;BME280;67372;49.404;11.034;2023-04-25T09:20:57;97573.41;;;9.98;64.06
75627;BME280;67372;49.404;11.034;2023-04-25T09:23:28;97567.78;;;9.76;65.50
75627;BME280;67372;49.404;11.034;2023-04-25T09:25:54;97566.97;;;9.87;65.02
75627;BME280;67372;49.404;11.034;2023-04-25T09:28:25;97573.03;;;9.94;65.08
75627;BME280;67372;49.404;11.034;2023-04-25T09:30:56;97562.41;;;10.06;64.79
75627;BME280;67372;49.404;11.034;2023-04-25T09:33:32;97559.38;;;10.02;63.84
75627;BME280;67372;49.404;11.034;2023-04-25T09:36:02;97562.16;;;10.07;64.95
75627;BME280;67372;49.404;11.034;2023-04-25T09:38:31;97554.81;;;10.21;63.91
75627;BME280;67372;49.404;11.034;2023-04-25T09:40:58;97557.38;;;10.28;62.92
75627;BME280;67372;49.404;11.034;2023-04-25T09:43:25;97556.94;;;10.42;63.77
75627;BME280;67372;49.404;11.034;2023-04-25T09:45:54;97560.84;;;10.63;63.63
75627;BME280;67372;49.404;11.034;2023-04-25T09:48:26;97550.97;;;10.99;60.59
75627;BME280;67372;49.404;11.034;2023-04-25T09:53:38;97561.53;;;11.46;57.40
75627;BME280;67372;49.404;11.034;2023-04-25T09:56:06;97553.66;;;11.39;58.38
75627;BME280;67372;49.404;11.034;2023-04-25T09:58:34;97563.22;;;11.23;59.28
75627;BME280;67372;49.404;11.034;2023-04-25T10:01:03;97566.03;;;11.05;59.84
75627;BME280;67372;49.404;11.034;2023-04-25T10:03:31;97566.41;;;10.97;60.73
75627;BME280;67372;49.404;11.034;2023-04-25T10:06:03;97563.72;;;11.08;60.09
75627;BME280;67372;49.404;11.034;2023-04-25T10:08:32;97569.56;;;11.34;58.88
75627;BME280;67372;49.404;11.034;2023-04-25T10:11:04;97565.63;;;11.36;59.38
75627;BME280;67372;49.404;11.034;2023-04-25T10:13:32;97565.97;;;11.40;58.73
75627;BME280;67372;49.404;11.034;2023-04-25T10:15:59;97571.25;;;11.52;60.20
75627;BME280;67372;49.404;11.034;2023-04-25T10:18:27;97567.69;;;11.75;59.97
75627;BME280;67372;49.404;11.034;2023-04-25T10:20:55;97557.97;;;11.97;59.17
75627;BME280;67372;49.404;11.034;2023-04-25T10:23:22;97564.44;;;12.01;59.30
75627;BME280;67372;49.404;11.034;2023-04-25T10:25:52;97562.50;;;11.96;56.77
75627;BME280;67372;49.404;11.034;2023-04-25T10:28:20;97557.22;;;11.85;56.42
75627;BME280;67372;49.404;11.034;2023-04-25T10:31:02;97557.75;;;11.58;55.49
75627;BME280;67372;49.404;11.034;2023-04-25T10:33:48;97557.03;;;11.34;56.95
75627;BME280;67372;49.404;11.034;2023-04-25T10:36:19;97565.41;;;11.38;55.26
75627;BME280;67372;49.404;11.034;2023-04-25T10:38:47;97562.53;;;11.56;54.12
75627;BME280;67372;49.404;11.034;2023-04-25T10:41:14;97555.09;;;11.58;54.02
75627;BME280;67372;49.404;11.034;2023-04-25T10:43:44;97556.75;;;11.59;55.47
75627;BME280;67372;49.404;11.034;2023-04-25T10:46:25;97554.16;;;11.64;55.37
75627;BME280;67372;49.404;11.034;2023-04-25T10:48:57;97562.50;;;11.40;54.32
75627;BME280;67372;49.404;11.034;2023-04-25T10:51:28;97552.31;;;11.25;54.63
75627;BME280;67372;49.404;11.034;2023-04-25T10:54:08;97556.66;;;11.43;54.47
75627;BME280;67372;49.404;11.034;2023-04-25T10:56:40;97554.81;;;11.43;52.18
75627;BME280;67372;49.404;11.034;2023-04-25T10:59:10;97560.31;;;11.65;50.30
75627;BME280;67372;49.404;11.034;2023-04-25T11:01:47;97554.44;;;11.80;48.09
75627;BME280;67372;49.404;11.034;2023-04-25T11:04:30;97551.91;;;11.73;49.50
75627;BME280;67372;49.404;11.034;2023-04-25T11:09:33;97559.50;;;11.93;48.86
75627;BME280;67372;49.404;11.034;2023-04-25T11:12:00;97565.81;;;11.87;49.45
75627;BME280;67372;49.404;11.034;2023-04-25T11:14:27;97557.81;;;11.75;51.48
75627;BME280;67372;49.404;11.034;2023-04-25T11:16:54;97561.41;;;11.81;51.52
75627;BME280;67372;49.404;11.034;2023-04-25T11:19:23;97560.72;;;12.02;51.54
75627;BME280;67372;49.404;11.034;2023-04-25T11:21:50;97565.44;;;12.45;48.05
75627;BME280;67372;49.404;11.034;2023-04-25T11:24:17;97551.09;;;12.51;46.21
75627;BME280;67372;49.404;11.034;2023-04-25T11:26:46;97561.78;;;12.18;47.63
75627;BME280;67372;49.404;11.034;2023-04-25T11:29:12;97554.03;;;12.16;47.57
75627;BME280;67372;49.404;11.034;2023-04-25T11:31:43;97564.72;;;12.16;48.17
75627;BME280;67372;49.404;11.034;2023-04-25T11:34:10;97560.75;;;12.19;48.18
75627;BME280;67372;49.404;11.034;2023-04-25T11:36:38;97568.50;;;12.04;48.42
75627;BME280;67372;49.404;11.034;2023-04-25T11:39:04;97568.16;;;12.00;48.22
75627;BME280;67372;49.404;11.034;2023-04-25T11:41:31;97560.66;;;12.14;48.40
75627;BME280;67372;49.404;11.034;2023-04-25T11:43:58;97570.88;;;12.17;47.43
75627;BME280;67372;49.404;11.034;2023-04-25T11:46:24;97573.59;;;12.05;46.44
75627;BME280;67372;49.404;11.034;2023-04-25T11:48:50;97580.34;;;11.79;46.00
75627;BME280;67372;49.404;11.034;2023-04-25T11:51:17;97581.63;;;11.77;46.12
75627;BME280;67372;49.404;11.034;2023-04-25T11:53:44;97585.81;;;11.84;46.46
75627;BME280;67372;49.404;11.034;2023-04-25T11:56:11;97580.56;;;12.06;46.04
75627;BME280;67372;49.404;11.034;2023-04-25T11:58:59;97566.91;;;12.19;45.63
75627;BME280;67372;49.404;11.034;2023-04-25T12:01:29;97564.88;;;12.43;46.61
75627;BME280;67372;49.404;11.034;2023-04-25T12:04:14;97580.69;;;12.62;44.88
75627;BME280;67372;49.404;11.034;2023-04-25T12:06:43;97596.63;;;12.73;43.13
75627;BME280;67372;49.404;11.034;2023-04-25T12:09:11;97583.38;;;12.62;43.54
75627;BME280;67372;49.404;11.034;2023-04-25T12:11:45;97582.88;;;12.65;43.11
75627;BME280;67372;49.404;11.034;2023-04-25T12:14:12;97587.91;;;12.61;43.33
75627;BME280;67372;49.404;11.034;2023-04-25T12:16:46;97595.31;;;12.93;41.98
75627;BME280;67372;49.404;11.034;2023-04-25T12:19:15;97593.06;;;12.84;43.13
75627;BME280;67372;49.404;11.034;2023-04-25T12:21:42;97600.34;;;13.06;42.19
75627;BME280;67372;49.404;11.034;2023-04-25T12:24:24;97592.81;;;12.86;42.22
75627;BME280;67372;49.404;11.034;2023-04-25T12:26:59;97598.59;;;12.61;42.93
75627;BME280;67372;49.404;11.034;2023-04-25T12:29:27;97606.56;;;12.39;43.89
75627;BME280;67372;49.404;11.034;2023-04-25T12:32:07;97601.75;;;12.41;44.50
75627;BME280;67372;49.404;11.034;2023-04-25T12:34:34;97607.53;;;12.67;43.72
75627;BME280;67372;49.404;11.034;2023-04-25T12:37:00;97612.94;;;12.88;42.50
75627;BME280;67372;49.404;11.034;2023-04-25T12:39:26;97616.91;;;12.69;43.17
75627;BME280;67372;49.404;11.034;2023-04-25T12:41:53;97617.50;;;12.71;43.55
75627;BME280;67372;49.404;11.034;2023-04-25T12:44:20;97615.38;;;12.40;43.76
75627;BME280;67372;49.404;11.034;2023-04-25T12:46:47;97618.97;;;12.62;43.50
75627;BME280;67372;49.404;11.034;2023-04-25T12:49:13;97629.47;;;12.52;43.76
75627;BME280;67372;49.404;11.034;2023-04-25T12:51:43;97629.25;;;12.53;44.31
75627;BME280;67372;49.404;11.034;2023-04-25T12:54:09;97624.38;;;12.34;45.66
75627;BME280;67372;49.404;11.034;2023-04-25T12:56:36;97618.19;;;12.16;45.28
75627;BME280;67372;49.404;11.034;2023-04-25T12:59:02;97628.16;;;12.21;45.68
75627;BME280;67372;49.404;11.034;2023-04-25T13:01:29;97623.34;;;12.35;45.34
75627;BME280;67372;49.404;11.034;2023-04-25T13:03:55;97635.91;;;12.34;45.76